Time;durP1;ratioP1;P1;durP2;ratioP2;P2;SDS_P1;SDS_P2;PMS_P1;PMS_P2;Temp;Humidity;BMP_temperature;BMP_pressure;BME280_temperature;BME280_humidity;BME280_pressure;Samples;Min_cycle;Max_cycle;Signal;HPM_P1;HPM_P2
2022/09/09 00:01:24;;;;;;;4.05;1.10;;;21.40;90.30;;;;;;5033486;28;20026;-69
2022/09/09 00:04:14;;;;;;;6.13;1.40;;;21.30;90.60;;;;;;5023396;28;20500;-67
2022/09/09 00:06:58;;;;;;;6.55;1.35;;;21.30;90.40;;;;;;5033236;28;20025;-67
2022/09/09 00:09:28;;;;;;;4.25;1.50;;;21.30;90.50;;;;;;5033356;28;20083;-69
2022/09/09 00:12:14;;;;;;;4.35;1.55;;;21.30;90.30;;;;;;5033286;28;20049;-67
2022/09/09 00:14:55;;;;;;;3.63;1.27;;;21.30;90.50;;;;;;5033374;28;20017;-67
2022/09/09 00:17:30;;;;;;;5.95;1.75;;;21.30;90.50;;;;;;5033732;28;20024;-70
2022/09/09 00:20:00;;;;;;;5.65;1.80;;;21.30;90.70;;;;;;5032374;28;20017;-67
2022/09/09 00:22:30;;;;;;;4.88;1.65;;;21.30;90.50;;;;;;5033047;28;20057;-69
2022/09/09 00:25:10;;;;;;;4.53;1.55;;;21.20;90.50;;;;;;5033146;28;20094;-69
2022/09/09 00:27:45;;;;;;;4.10;1.73;;;21.20;90.60;;;;;;5033128;28;20576;-72
2022/09/09 00:30:27;;;;;;;5.32;1.38;;;21.20;90.60;;;;;;5033194;28;20382;-70
2022/09/09 00:33:02;;;;;;;5.30;1.55;;;21.20;90.60;;;;;;5033041;28;20037;-72
2022/09/09 00:35:38;;;;;;;5.95;1.55;;;21.20;90.50;;;;;;5032489;28;20032;-72
2022/09/09 00:38:13;;;;;;;3.97;1.17;;;21.20;90.60;;;;;;5033012;28;20109;-73
2022/09/09 00:40:45;;;;;;;3.92;1.02;;;21.10;90.60;;;;;;5032756;28;20068;-71
2022/09/09 00:43:25;;;;;;;1.77;0.80;;;21.20;90.50;;;;;;5032697;28;20104;-71
2022/09/09 00:46:23;;;;;;;5.72;0.88;;;21.10;90.60;;;;;;5045458;28;20112;-71
2022/09/09 00:49:03;;;;;;;3.47;1.27;;;21.10;90.60;;;;;;5051920;28;20132;-72
2022/09/09 00:51:50;;;;;;;4.22;1.02;;;21.20;90.30;;;;;;5051996;28;20021;-72
2022/09/09 00:54:38;;;;;;;6.07;0.88;;;21.10;90.40;;;;;;5052904;28;20036;-72
2022/09/09 00:57:26;;;;;;;4.35;1.00;;;21.00;90.60;;;;;;5052834;28;20017;-72
2022/09/09 01:00:15;;;;;;;3.40;1.02;;;21.00;90.60;;;;;;5052705;28;20064;-71
2022/09/09 01:02:52;;;;;;;8.93;1.50;;;21.10;90.60;;;;;;5052220;28;20056;-72
2022/09/09 01:05:50;;;;;;;3.83;1.00;;;21.00;90.60;;;;;;5052485;28;20362;-71
2022/09/09 01:08:22;;;;;;;4.47;1.10;;;21.10;90.60;;;;;;5051329;28;20416;-70
2022/09/09 01:10:53;;;;;;;5.73;1.17;;;21.10;90.50;;;;;;5052621;28;20040;-71
2022/09/09 01:13:30;;;;;;;4.13;1.17;;;21.00;90.50;;;;;;5052433;28;20023;-72
2022/09/09 01:16:05;;;;;;;5.25;1.13;;;21.00;90.50;;;;;;5052517;28;20025;-71
2022/09/09 01:18:36;;;;;;;5.28;1.00;;;21.00;90.50;;;;;;5051997;28;20049;-73
2022/09/09 01:21:27;;;;;;;4.63;1.40;;;20.90;90.50;;;;;;5052321;28;20021;-72
2022/09/09 01:24:31;;;;;;;7.13;1.40;;;20.90;90.60;;;;;;5052391;28;20021;-72
2022/09/09 01:27:05;;;;;;;2.63;0.90;;;20.90;90.60;;;;;;5052695;28;20067;-71
2022/09/09 01:29:31;;;;;;;4.35;0.90;;;20.90;90.60;;;;;;5052421;28;20100;-69
2022/09/09 01:32:01;;;;;;;6.25;1.17;;;20.90;90.60;;;;;;5052309;28;20179;-68
2022/09/09 01:34:38;;;;;;;3.10;0.73;;;20.90;90.60;;;;;;5052314;28;20222;-69
2022/09/09 01:37:07;;;;;;;4.82;0.80;;;20.80;90.60;;;;;;5052695;28;20025;-69
2022/09/09 01:39:34;;;;;;;6.10;1.10;;;20.80;90.60;;;;;;5052331;28;20020;-72
2022/09/09 01:42:00;;;;;;;6.20;0.82;;;20.80;90.60;;;;;;5052278;28;20497;-70
2022/09/09 01:44:28;;;;;;;3.50;1.13;;;20.90;90.60;;;;;;5052022;28;20017;-70
2022/09/09 01:46:53;;;;;;;4.13;0.90;;;20.80;90.60;;;;;;5052014;28;20029;-69
2022/09/09 01:49:19;;;;;;;4.63;1.10;;;20.80;90.60;;;;;;5055374;28;20021;-70
2022/09/09 01:51:49;;;;;;;5.20;0.88;;;20.80;90.60;;;;;;5056143;28;20029;-69
2022/09/09 01:54:14;;;;;;;6.32;0.68;;;20.80;90.60;;;;;;5055742;28;20027;-70
2022/09/09 01:56:47;;;;;;;7.45;1.13;;;20.80;90.60;;;;;;5055875;28;20025;-69
2022/09/09 01:59:15;;;;;;;3.03;0.63;;;20.80;90.70;;;;;;5055700;28;20035;-70
2022/09/09 02:02:09;;;;;;;3.97;0.70;;;20.70;90.80;;;;;;5055133;28;20036;-69
2022/09/09 02:04:37;;;;;;;4.75;1.00;;;20.70;90.90;;;;;;5055372;28;20035;-69
2022/09/09 02:07:14;;;;;;;4.20;0.93;;;20.70;90.70;;;;;;5055687;28;20088;-69
2022/09/09 02:09:43;;;;;;;3.58;0.85;;;20.70;90.70;;;;;;5055359;28;20025;-69
2022/09/09 02:12:17;;;;;;;6.60;1.15;;;20.70;90.80;;;;;;5055488;28;20021;-68
2022/09/09 02:14:48;;;;;;;2.72;1.20;;;20.70;90.80;;;;;;5055395;28;20035;-69
2022/09/09 02:17:22;;;;;;;4.45;1.00;;;20.60;90.80;;;;;;5054942;28;20017;-69
2022/09/09 02:20:02;;;;;;;4.32;0.90;;;20.70;90.80;;;;;;5055251;28;20040;-69
2022/09/09 02:22:29;;;;;;;5.53;1.13;;;20.70;90.90;;;;;;5055304;28;20112;-69
2022/09/09 02:24:58;;;;;;;6.18;1.50;;;20.70;90.70;;;;;;5055264;28;20032;-70
2022/09/09 02:27:25;;;;;;;5.00;1.15;;;20.60;90.90;;;;;;5055965;28;20021;-69
2022/09/09 02:29:52;;;;;;;5.97;1.20;;;20.70;90.80;;;;;;5054758;28;20017;-70
2022/09/09 02:32:22;;;;;;;3.78;1.38;;;20.70;91.00;;;;;;5055109;28;20106;-69
2022/09/09 02:34:53;;;;;;;4.25;1.20;;;20.60;91.00;;;;;;5054923;28;20017;-69
2022/09/09 02:37:24;;;;;;;8.05;1.95;;;20.60;91.10;;;;;;5055106;28;20040;-69
2022/09/09 02:39:50;;;;;;;4.53;1.50;;;20.60;91.10;;;;;;5054632;28;20037;-69
2022/09/09 02:42:15;;;;;;;6.35;1.60;;;20.60;91.20;;;;;;5054669;28;20044;-69
2022/09/09 02:44:42;;;;;;;4.55;1.90;;;20.70;91.10;;;;;;5054522;28;20029;-69
2022/09/09 02:47:20;;;;;;;4.68;1.77;;;20.60;91.10;;;;;;5054799;28;20039;-69
2022/09/09 02:49:59;;;;;;;4.22;1.60;;;20.60;91.20;;;;;;5054736;28;20108;-69
2022/09/09 02:52:58;;;;;;;5.72;1.95;;;20.50;91.30;;;;;;5054937;28;20025;-69
2022/09/09 02:55:40;;;;;;;5.07;1.65;;;20.60;91.40;;;;;;5054926;28;20517;-72
2022/09/09 02:58:10;;;;;;;5.97;1.50;;;20.50;91.30;;;;;;5053864;28;20096;-71
2022/09/09 03:00:35;;;;;;;6.90;1.58;;;20.70;91.30;;;;;;5054017;28;20029;-72
2022/09/09 03:03:06;;;;;;;4.47;1.73;;;20.50;91.50;;;;;;5054447;28;20074;-72
2022/09/09 03:05:32;;;;;;;7.25;1.85;;;20.60;91.40;;;;;;5054421;28;20087;-70
2022/09/09 03:07:58;;;;;;;4.68;1.60;;;20.60;91.40;;;;;;5054576;28;20378;-72
2022/09/09 03:10:23;;;;;;;7.30;1.88;;;20.50;91.50;;;;;;5054459;28;20419;-72
2022/09/09 03:12:50;;;;;;;3.70;1.48;;;20.50;91.60;;;;;;5054280;28;20021;-72
2022/09/09 03:15:16;;;;;;;6.60;2.00;;;20.50;91.60;;;;;;5053843;28;20029;-71
2022/09/09 03:17:42;;;;;;;4.05;1.08;;;20.50;91.60;;;;;;5053987;28;20079;-71
2022/09/09 03:20:08;;;;;;;7.32;1.90;;;20.50;91.60;;;;;;5053944;28;20029;-71
2022/09/09 03:22:34;;;;;;;5.57;1.58;;;20.50;91.50;;;;;;5054113;28;20037;-68
2022/09/09 03:25:00;;;;;;;8.80;1.80;;;20.60;91.50;;;;;;5054084;28;20083;-70
2022/09/09 03:27:25;;;;;;;9.48;1.65;;;20.60;91.40;;;;;;5054016;28;20029;-68
2022/09/09 03:29:51;;;;;;;5.80;1.45;;;20.60;91.40;;;;;;5053654;28;20017;-69
2022/09/09 03:32:17;;;;;;;6.60;1.45;;;20.60;91.40;;;;;;5053736;28;20059;-68
2022/09/09 03:34:43;;;;;;;5.15;1.30;;;20.50;91.60;;;;;;5053855;28;20485;-69
2022/09/09 03:37:09;;;;;;;7.95;1.73;;;20.50;91.60;;;;;;5053845;28;20024;-68
2022/09/09 03:39:35;;;;;;;6.00;1.58;;;20.60;91.50;;;;;;5053602;28;20451;-69
2022/09/09 03:42:03;;;;;;;8.45;1.48;;;20.50;91.60;;;;;;5053519;28;20039;-69
2022/09/09 03:44:30;;;;;;;6.22;1.92;;;20.50;91.60;;;;;;5052365;28;20021;-70
2022/09/09 03:46:56;;;;;;;5.95;1.63;;;20.40;91.70;;;;;;5053561;28;20024;-70
2022/09/09 03:49:22;;;;;;;5.65;1.48;;;20.30;91.80;;;;;;5049158;28;20071;-69
2022/09/09 03:51:48;;;;;;;5.65;1.67;;;20.40;91.70;;;;;;5051744;28;20396;-69
2022/09/09 03:54:13;;;;;;;11.48;2.35;;;20.40;91.80;;;;;;5047002;28;20100;-70
2022/09/09 03:56:41;;;;;;;5.53;1.45;;;20.50;91.60;;;;;;5044993;28;20025;-71
2022/09/09 03:59:08;;;;;;;5.72;1.38;;;20.40;91.60;;;;;;5045429;28;20072;-69
2022/09/09 04:01:34;;;;;;;7.70;1.80;;;20.40;91.80;;;;;;5050767;28;20479;-69
2022/09/09 04:04:02;;;;;;;7.13;1.98;;;20.50;91.60;;;;;;5035263;28;20414;-69
2022/09/09 04:06:28;;;;;;;7.60;2.05;;;20.50;91.60;;;;;;5031221;28;20032;-68
2022/09/09 04:08:53;;;;;;;8.45;1.95;;;20.50;91.60;;;;;;5032428;28;20025;-68
2022/09/09 04:11:19;;;;;;;11.43;2.05;;;20.50;91.70;;;;;;5032586;28;20095;-69
2022/09/09 04:13:45;;;;;;;10.00;2.10;;;20.40;91.70;;;;;;5032448;28;20025;-69
2022/09/09 04:16:15;;;;;;;10.63;1.50;;;20.40;91.70;;;;;;5033733;28;20033;-69
2022/09/09 04:18:41;;;;;;;8.10;1.92;;;20.40;91.80;;;;;;5033269;28;20029;-69
2022/09/09 04:21:08;;;;;;;6.93;1.67;;;20.50;91.70;;;;;;5033185;28;20398;-70
2022/09/09 04:23:34;;;;;;;7.05;1.45;;;20.40;91.60;;;;;;5031777;28;20458;-70
2022/09/09 04:26:01;;;;;;;8.35;1.52;;;20.40;91.60;;;;;;5032747;28;20022;-69
2022/09/09 04:28:29;;;;;;;8.23;1.83;;;20.30;91.90;;;;;;5033198;28;20029;-68
2022/09/09 04:30:56;;;;;;;5.95;1.40;;;20.30;91.80;;;;;;5033214;28;20018;-69
2022/09/09 04:33:26;;;;;;;7.57;1.70;;;20.30;91.80;;;;;;5032941;28;20524;-69
2022/09/09 04:35:54;;;;;;;6.90;1.50;;;20.30;91.80;;;;;;5033157;28;20506;-69
2022/09/09 04:38:19;;;;;;;7.05;1.55;;;20.50;91.60;;;;;;5032929;28;20371;-70
2022/09/09 04:40:51;;;;;;;8.88;1.60;;;20.30;91.80;;;;;;5032327;28;20486;-68
2022/09/09 04:43:16;;;;;;;8.55;1.98;;;20.30;91.70;;;;;;5033062;28;20044;-70
2022/09/09 04:45:43;;;;;;;8.70;1.70;;;20.50;91.60;;;;;;5032704;28;20018;-69
2022/09/09 04:48:09;;;;;;;8.07;1.90;;;20.40;91.80;;;;;;5032734;28;20489;-69
2022/09/09 04:50:35;;;;;;;9.23;1.90;;;20.30;91.70;;;;;;5032818;28;20026;-69
2022/09/09 04:53:05;;;;;;;8.52;1.60;;;20.40;91.70;;;;;;5032740;28;20079;-68
2022/09/09 04:55:31;;;;;;;8.02;1.80;;;20.30;91.80;;;;;;5032412;28;20025;-69
2022/09/09 04:57:57;;;;;;;8.45;1.80;;;20.30;91.90;;;;;;5032746;28;20481;-68
2022/09/09 05:00:23;;;;;;;5.18;1.45;;;20.20;92.00;;;;;;5032294;28;20029;-69
2022/09/09 05:02:49;;;;;;;9.30;2.17;;;20.40;91.80;;;;;;5049729;28;20049;-69
2022/09/09 05:05:14;;;;;;;6.47;1.48;;;20.30;91.90;;;;;;5051623;28;20056;-69
2022/09/09 05:07:40;;;;;;;8.43;1.92;;;20.30;91.80;;;;;;5050714;28;20048;-68
2022/09/09 05:10:06;;;;;;;10.45;2.35;;;20.30;91.80;;;;;;5051230;28;20029;-69
2022/09/09 05:12:31;;;;;;;9.05;1.90;;;20.20;92.20;;;;;;5052646;28;20021;-70
2022/09/09 05:14:57;;;;;;;7.93;2.10;;;20.30;91.80;;;;;;5052287;28;20385;-69
2022/09/09 05:17:23;;;;;;;9.23;1.98;;;20.40;91.80;;;;;;5052399;28;20572;-68
2022/09/09 05:19:49;;;;;;;9.02;2.00;;;20.20;92.00;;;;;;5050569;28;20060;-68
2022/09/09 05:22:20;;;;;;;7.95;1.52;;;20.10;92.30;;;;;;5032258;28;20510;-70
2022/09/09 05:24:45;;;;;;;6.30;1.55;;;20.20;92.20;;;;;;5038622;28;20078;-68
2022/09/09 05:27:12;;;;;;;7.82;1.48;;;20.20;92.20;;;;;;5043837;28;20107;-68
2022/09/09 05:29:38;;;;;;;5.88;1.50;;;20.40;92.00;;;;;;5040808;28;20061;-66
2022/09/09 05:32:04;;;;;;;6.25;2.10;;;20.30;92.00;;;;;;5048453;28;20026;-67
2022/09/09 05:34:30;;;;;;;9.52;1.80;;;20.50;91.90;;;;;;5041657;28;20029;-71
2022/09/09 05:36:55;;;;;;;6.82;1.45;;;20.40;92.00;;;;;;5045959;28;20033;-67
2022/09/09 05:39:21;;;;;;;4.85;1.33;;;20.60;91.90;;;;;;5046885;28;20096;-69
2022/09/09 05:41:46;;;;;;;8.07;1.52;;;20.90;91.70;;;;;;5042606;28;20107;-67
2022/09/09 05:44:13;;;;;;;4.32;1.00;;;21.10;91.40;;;;;;5052922;28;20081;-67
2022/09/09 05:46:39;;;;;;;5.53;1.30;;;21.10;91.50;;;;;;5053650;28;20025;-69
2022/09/09 05:49:05;;;;;;;6.10;1.15;;;21.20;91.40;;;;;;5052779;28;20036;-69
2022/09/09 05:51:31;;;;;;;3.92;1.15;;;21.20;91.50;;;;;;5038897;28;20025;-66
2022/09/09 05:53:59;;;;;;;8.27;1.77;;;21.30;91.40;;;;;;5038655;28;20030;-67
2022/09/09 05:56:27;;;;;;;17.77;2.60;;;21.30;91.50;;;;;;5047614;28;20547;-70
2022/09/09 05:58:54;;;;;;;5.57;1.58;;;21.30;91.30;;;;;;5041872;28;20028;-67
2022/09/09 06:01:26;;;;;;;6.75;1.50;;;21.50;91.30;;;;;;5043775;28;20064;-68
2022/09/09 06:03:52;;;;;;;14.57;2.15;;;21.50;91.10;;;;;;5046654;28;20029;-68
2022/09/09 06:06:25;;;;;;;7.38;1.60;;;21.50;91.00;;;;;;5041306;28;20061;-68
2022/09/09 06:08:53;;;;;;;8.45;1.85;;;21.50;90.90;;;;;;5035119;28;20028;-70
2022/09/09 06:11:24;;;;;;;9.05;1.60;;;21.50;90.80;;;;;;5055258;28;20041;-67
2022/09/09 06:13:53;;;;;;;10.15;1.88;;;21.60;90.80;;;;;;5060995;28;20054;-67
2022/09/09 06:16:23;;;;;;;9.23;1.80;;;21.70;90.60;;;;;;5056652;28;20017;-70
2022/09/09 06:18:50;;;;;;;8.05;1.55;;;21.70;90.70;;;;;;5043701;28;20107;-68
2022/09/09 06:21:18;;;;;;;8.43;1.27;;;21.70;90.70;;;;;;5036502;28;20025;-70
2022/09/09 06:23:44;;;;;;;9.50;1.88;;;21.60;90.80;;;;;;5050748;28;20029;-68
2022/09/09 06:26:12;;;;;;;7.80;1.80;;;21.70;90.60;;;;;;5049842;28;20020;-69
2022/09/09 06:28:38;;;;;;;8.27;1.60;;;21.70;90.60;;;;;;5033903;28;20104;-69
2022/09/09 06:31:10;;;;;;;10.88;1.67;;;21.70;90.50;;;;;;5035122;28;20025;-70
2022/09/09 06:33:40;;;;;;;10.07;1.60;;;21.80;90.50;;;;;;5037753;28;20108;-68
2022/09/09 06:36:11;;;;;;;7.35;1.20;;;21.80;90.50;;;;;;5048711;28;20021;-68
2022/09/09 06:38:37;;;;;;;6.78;1.27;;;21.80;90.40;;;;;;5043798;28;20540;-68
2022/09/09 06:41:03;;;;;;;10.18;2.13;;;21.90;90.40;;;;;;5040494;28;20061;-67
2022/09/09 06:43:29;;;;;;;5.70;1.45;;;21.90;90.20;;;;;;5037230;28;20029;-68
2022/09/09 06:46:00;;;;;;;10.27;1.73;;;21.80;90.20;;;;;;5041623;28;20048;-67
2022/09/09 06:48:27;;;;;;;5.50;1.60;;;21.90;90.30;;;;;;5040664;28;20022;-68
2022/09/09 06:51:12;;;;;;;7.53;1.33;;;21.90;90.30;;;;;;5049081;28;20041;-68
2022/09/09 06:53:39;;;;;;;7.05;1.80;;;21.80;90.30;;;;;;5043205;28;20075;-68
2022/09/09 06:56:11;;;;;;;8.98;1.90;;;21.90;90.30;;;;;;5052882;28;20018;-69
2022/09/09 06:58:46;;;;;;;8.80;2.13;;;21.90;90.30;;;;;;5034537;28;20028;-68
2022/09/09 07:01:14;;;;;;;6.72;1.48;;;21.90;90.30;;;;;;5042763;28;20120;-68
2022/09/09 07:03:42;;;;;;;8.77;1.73;;;21.90;90.40;;;;;;5037236;28;20029;-69
2022/09/09 07:06:14;;;;;;;8.70;1.83;;;21.90;90.60;;;;;;5033726;28;20069;-68
2022/09/09 07:08:39;;;;;;;;;;;21.90;90.60;;;;;;5036038;28;20021;-68
2022/09/09 07:11:06;;;;;;;9.88;1.90;;;22.00;90.50;;;;;;5036735;28;20384;-67
2022/09/09 07:13:33;;;;;;;7.85;1.73;;;22.00;90.30;;;;;;5040267;28;20470;-67
2022/09/09 07:16:25;;;;;;;8.32;1.73;;;21.90;90.40;;;;;;5041119;28;20571;-68
2022/09/09 07:18:52;;;;;;;8.57;1.38;;;21.90;90.40;;;;;;5031624;28;20168;-70
2022/09/09 07:21:18;;;;;;;10.20;1.80;;;22.00;90.40;;;;;;5033260;28;20049;-69
2022/09/09 07:23:44;;;;;;;5.70;1.52;;;21.80;90.50;;;;;;5034023;28;20078;-68
2022/09/09 07:26:16;;;;;;;7.32;1.85;;;21.80;90.60;;;;;;5036917;28;20106;-68
2022/09/09 07:28:42;;;;;;;7.68;1.20;;;21.90;90.50;;;;;;5035155;28;20026;-68
2022/09/09 07:31:16;;;;;;;5.22;1.27;;;22.00;90.30;;;;;;5036497;28;20055;-68
2022/09/09 07:33:42;;;;;;;7.13;1.35;;;21.80;90.70;;;;;;5041537;28;21409;-69
2022/09/09 07:36:09;;;;;;;8.68;1.85;;;21.90;90.70;;;;;;5036073;28;20100;-68
2022/09/09 07:38:45;;;;;;;5.25;1.50;;;21.90;90.40;;;;;;5044395;28;20029;-68
2022/09/09 07:41:20;;;;;;;5.88;1.55;;;21.90;90.60;;;;;;5033323;28;20041;-67
2022/09/09 07:43:47;;;;;;;7.35;1.52;;;21.90;90.50;;;;;;5031201;28;20030;-67
2022/09/09 07:46:15;;;;;;;5.80;1.45;;;21.90;90.50;;;;;;5032787;28;20116;-67
2022/09/09 07:48:52;;;;;;;5.55;1.45;;;22.00;90.40;;;;;;5035223;28;20057;-67
2022/09/09 07:51:22;;;;;;;6.10;1.35;;;21.90;90.50;;;;;;5039972;28;20029;-67
2022/09/09 07:53:51;;;;;;;4.85;1.23;;;22.10;90.30;;;;;;5048209;28;20029;-67
2022/09/09 07:56:18;;;;;;;7.78;1.58;;;22.10;90.30;;;;;;5051389;28;20402;-67
2022/09/09 07:58:47;;;;;;;6.32;1.90;;;22.10;90.20;;;;;;5052568;28;20398;-67
2022/09/09 08:01:22;;;;;;;11.77;1.92;;;22.00;90.70;;;;;;5064455;28;20449;-68
2022/09/09 08:03:58;;;;;;;4.50;1.13;;;22.10;90.40;;;;;;5051742;28;20108;-67
2022/09/09 08:06:26;;;;;;;7.50;1.48;;;22.20;90.40;;;;;;5052275;28;20028;-68
2022/09/09 08:08:54;;;;;;;8.45;2.00;;;22.10;90.40;;;;;;5052269;28;20359;-67
2022/09/09 08:11:22;;;;;;;7.45;1.40;;;22.10;90.40;;;;;;5053426;28;20063;-68
2022/09/09 08:13:50;;;;;;;6.25;1.25;;;22.10;90.40;;;;;;5037363;28;20037;-67
2022/09/09 08:16:27;;;;;;;5.85;1.38;;;22.20;90.40;;;;;;5048459;28;20033;-68
2022/09/09 08:18:53;;;;;;;5.22;1.38;;;22.10;90.30;;;;;;5052424;28;20103;-68
2022/09/09 08:21:24;;;;;;;5.40;1.30;;;22.20;90.20;;;;;;5052382;28;20553;-70
2022/09/09 08:23:52;;;;;;;5.38;1.60;;;22.20;90.10;;;;;;5050991;28;20029;-68
2022/09/09 08:26:27;;;;;;;7.28;1.48;;;22.20;90.20;;;;;;5038791;28;20033;-68
2022/09/09 08:28:56;;;;;;;6.43;1.77;;;22.20;90.10;;;;;;5052586;28;20382;-68
2022/09/09 08:31:32;;;;;;;6.85;1.27;;;22.20;90.20;;;;;;5051697;28;20070;-70
2022/09/09 08:34:04;;;;;;;5.05;1.52;;;22.20;90.20;;;;;;5051720;28;20035;-68
2022/09/09 08:36:33;;;;;;;6.53;1.50;;;22.20;90.10;;;;;;5048028;28;20067;-68
2022/09/09 08:39:00;;;;;;;4.28;1.13;;;22.30;90.10;;;;;;5034392;28;20024;-68
2022/09/09 08:42:04;;;;;;;3.90;1.15;;;22.10;90.20;;;;;;5032807;28;20044;-68
2022/09/09 08:44:54;;;;;;;5.70;1.05;;;22.20;90.10;;;;;;5028622;28;20068;-68
2022/09/09 08:47:59;;;;;;;5.07;1.25;;;22.10;90.20;;;;;;5049159;28;20498;-68
2022/09/09 08:50:35;;;;;;;4.55;0.95;;;22.10;90.30;;;;;;5051840;28;20048;-68
2022/09/09 08:53:19;;;;;;;8.27;1.30;;;22.20;90.10;;;;;;5051522;28;20159;-68
2022/09/09 08:56:08;;;;;;;4.20;1.08;;;22.20;90.10;;;;;;5045530;28;20025;-68
2022/09/09 08:58:36;;;;;;;4.70;1.40;;;22.10;90.20;;;;;;5051883;28;20037;-67
2022/09/09 09:01:32;;;;;;;5.57;1.05;;;22.20;90.10;;;;;;5041148;28;20533;-68
2022/09/09 09:04:27;;;;;;;5.70;1.38;;;22.20;90.20;;;;;;5043675;28;20499;-68
2022/09/09 09:07:12;;;;;;;5.53;1.23;;;22.20;90.40;;;;;;5056000;28;20013;-68
2022/09/09 09:09:45;;;;;;;5.47;1.02;;;22.20;90.20;;;;;;5055860;28;20123;-68
2022/09/09 09:12:21;;;;;;;4.45;1.15;;;22.30;90.20;;;;;;5053770;28;20033;-68
2022/09/09 09:14:48;;;;;;;4.38;1.08;;;22.20;90.40;;;;;;5042833;28;20482;-68
2022/09/09 09:17:22;;;;;;;4.85;1.17;;;22.20;90.10;;;;;;5048994;28;20021;-67
2022/09/09 09:19:52;;;;;;;4.68;1.10;;;22.20;90.10;;;;;;5043074;28;20033;-68
2022/09/09 09:22:26;;;;;;;5.38;1.13;;;22.30;90.00;;;;;;5047484;28;20227;-69
2022/09/09 09:25:04;;;;;;;5.50;1.02;;;22.30;89.90;;;;;;5051355;28;20473;-67
2022/09/09 09:27:44;;;;;;;3.63;0.98;;;22.30;89.70;;;;;;5055712;28;20469;-67
2022/09/09 09:30:14;;;;;;;5.15;1.20;;;22.30;90.10;;;;;;5049229;28;20025;-67
2022/09/09 09:32:49;;;;;;;5.85;1.08;;;22.20;90.00;;;;;;5043569;28;20485;-67
2022/09/09 09:35:14;;;;;;;5.63;1.05;;;22.20;90.00;;;;;;5043320;28;20018;-69
2022/09/09 09:37:43;;;;;;;5.75;1.33;;;22.10;89.90;;;;;;5036487;28;20032;-69
2022/09/09 09:40:18;;;;;;;5.57;1.05;;;22.20;90.00;;;;;;5035996;28;20036;-68
2022/09/09 09:43:00;;;;;;;3.63;1.13;;;22.30;89.90;;;;;;5046804;28;20037;-67
2022/09/09 09:45:41;;;;;;;4.47;1.33;;;22.20;90.00;;;;;;5036107;28;20022;-68
2022/09/09 09:48:11;;;;;;;4.38;1.15;;;22.30;89.90;;;;;;5034282;28;20029;-67
2022/09/09 09:51:10;;;;;;;4.97;1.10;;;22.30;89.80;;;;;;5043698;28;20036;-68
2022/09/09 09:53:38;;;;;;;2.97;1.10;;;22.30;89.80;;;;;;5042454;28;20670;-68
2022/09/09 09:56:09;;;;;;;4.78;0.95;;;22.40;89.70;;;;;;5049038;28;20021;-68
2022/09/09 09:58:44;;;;;;;4.07;0.82;;;22.30;89.90;;;;;;5038727;28;20013;-68
2022/09/09 10:01:25;;;;;;;4.18;1.17;;;22.30;90.00;;;;;;5049498;28;20041;-67
2022/09/09 10:03:52;;;;;;;5.10;1.05;;;22.20;90.10;;;;;;5050018;28;20033;-67
2022/09/09 10:06:37;;;;;;;4.97;1.30;;;22.30;90.00;;;;;;5052088;28;20024;-67
2022/09/09 10:09:18;;;;;;;3.50;1.00;;;22.30;90.00;;;;;;5046322;28;20533;-69
2022/09/09 10:11:46;;;;;;;6.87;1.33;;;22.30;90.00;;;;;;5041617;28;20032;-67
2022/09/09 10:14:30;;;;;;;2.60;0.70;;;22.40;90.00;;;;;;5056159;28;20108;-68
2022/09/09 10:17:34;;;;;;;3.75;1.10;;;22.30;90.00;;;;;;5046661;28;20108;-68
2022/09/09 10:20:23;;;;;;;4.97;1.10;;;22.30;90.10;;;;;;5039710;28;20562;-68
2022/09/09 10:23:04;;;;;;;2.40;0.98;;;22.30;90.00;;;;;;5045239;28;20033;-68
2022/09/09 10:25:48;;;;;;;5.22;1.13;;;22.40;90.00;;;;;;5039245;28;20456;-68
2022/09/09 10:28:32;;;;;;;3.63;0.82;;;22.40;89.70;;;;;;5040294;28;20108;-68
2022/09/09 10:31:24;;;;;;;4.43;0.90;;;22.40;89.90;;;;;;5044083;28;20033;-67
2022/09/09 10:34:20;;;;;;;5.05;1.10;;;22.10;90.30;;;;;;5037833;28;20029;-69
2022/09/09 10:36:49;;;;;;;6.85;1.25;;;22.00;90.40;;;;;;5035049;28;20025;-68
2022/09/09 10:39:32;;;;;;;4.13;1.05;;;22.00;90.60;;;;;;5048728;28;20553;-66
2022/09/09 10:42:09;;;;;;;6.75;1.58;;;22.10;90.50;;;;;;5036337;28;20096;-68
2022/09/09 10:45:01;;;;;;;6.72;0.80;;;22.00;90.70;;;;;;5040386;28;20078;-70
2022/09/09 10:47:41;;;;;;;3.85;1.05;;;21.90;90.70;;;;;;5034784;28;20033;-70
2022/09/09 10:50:33;;;;;;;5.15;1.50;;;22.00;90.40;;;;;;5035037;28;20075;-70
2022/09/09 10:53:23;;;;;;;4.20;0.70;;;21.90;90.80;;;;;;5042092;28;20037;-70
2022/09/09 10:55:55;;;;;;;3.47;0.90;;;21.90;90.70;;;;;;5047089;28;20025;-71
2022/09/09 10:58:32;;;;;;;3.05;0.80;;;21.80;90.60;;;;;;5041775;28;20064;-70
2022/09/09 11:01:02;;;;;;;4.32;0.88;;;21.90;90.60;;;;;;5043527;28;20488;-71
2022/09/09 11:03:29;;;;;;;4.25;0.90;;;21.80;90.60;;;;;;5046427;28;20027;-71
2022/09/09 11:06:04;;;;;;;3.28;0.98;;;22.00;90.50;;;;;;5042213;28;20096;-71
2022/09/09 11:08:33;;;;;;;1.73;0.63;;;21.90;90.60;;;;;;5040427;28;20036;-71
2022/09/09 11:11:03;;;;;;;3.00;0.75;;;22.10;90.60;;;;;;5044119;28;20159;-71
2022/09/09 11:13:58;;;;;;;3.03;0.70;;;22.20;90.30;;;;;;5040887;28;20026;-71
2022/09/09 11:16:50;;;;;;;2.90;0.50;;;22.30;90.20;;;;;;5045301;28;20056;-68
2022/09/09 11:19:42;;;;;;;2.20;0.57;;;22.30;90.10;;;;;;5040993;28;20075;-68
2022/09/09 11:22:32;;;;;;;3.53;0.45;;;22.30;90.10;;;;;;5036263;28;20190;-68
2022/09/09 11:25:22;;;;;;;3.47;0.57;;;22.40;89.90;;;;;;5034068;28;20393;-68
2022/09/09 11:28:15;;;;;;;3.35;0.85;;;22.40;90.00;;;;;;5040260;28;20032;-68
2022/09/09 11:30:59;;;;;;;6.20;0.90;;;22.50;90.10;;;;;;5046251;28;20029;-68
2022/09/09 11:33:48;;;;;;;3.95;0.68;;;22.50;90.50;;;;;;5043410;28;20108;-68
2022/09/09 11:36:26;;;;;;;9.77;1.30;;;22.40;90.60;;;;;;5047322;28;20025;-67
2022/09/09 11:38:58;;;;;;;5.97;0.82;;;22.50;90.80;;;;;;5050623;28;20059;-68
2022/09/09 11:41:34;;;;;;;4.43;0.90;;;22.60;90.70;;;;;;5051701;28;20048;-67
2022/09/09 11:44:09;;;;;;;5.80;1.00;;;22.60;90.80;;;;;;5042417;28;20025;-70
2022/09/09 11:46:38;;;;;;;3.97;1.00;;;22.70;90.80;;;;;;5044621;28;20186;-67
2022/09/09 11:49:06;;;;;;;4.60;1.20;;;22.70;90.70;;;;;;5051763;28;20021;-68
2022/09/09 11:51:33;;;;;;;6.10;0.98;;;22.70;90.90;;;;;;5063388;28;20016;-68
2022/09/09 11:54:29;;;;;;;6.78;1.05;;;22.70;90.70;;;;;;5046131;28;20385;-66
2022/09/09 11:56:56;;;;;;;3.95;0.82;;;22.80;90.70;;;;;;5053596;28;20029;-67
2022/09/09 11:59:31;;;;;;;6.03;0.90;;;22.90;90.80;;;;;;5049789;28;20028;-67
2022/09/09 12:02:01;;;;;;;4.13;0.80;;;22.90;90.70;;;;;;5041154;28;20045;-67
2022/09/09 12:04:58;;;;;;;5.32;0.88;;;22.90;90.60;;;;;;5037193;28;20025;-69
2022/09/09 12:07:39;;;;;;;4.38;0.90;;;22.90;90.60;;;;;;5036647;28;20103;-69
2022/09/09 12:10:23;;;;;;;3.80;0.68;;;22.90;90.50;;;;;;5033422;28;20108;-67
2022/09/09 12:12:49;;;;;;;4.55;0.45;;;22.90;90.40;;;;;;5038668;28;20026;-69
2022/09/09 12:15:21;;;;;;;6.75;1.10;;;23.00;90.30;;;;;;5035986;28;20078;-68
2022/09/09 12:17:55;;;;;;;6.78;1.30;;;23.00;90.20;;;;;;5042615;28;20104;-68
2022/09/09 12:20:51;;;;;;;6.18;1.00;;;23.00;90.10;;;;;;5043752;28;20021;-69
2022/09/09 12:23:29;;;;;;;3.70;0.93;;;23.10;90.00;;;;;;5040194;28;20101;-70
2022/09/09 12:26:08;;;;;;;3.47;0.68;;;23.00;90.10;;;;;;5041404;28;20087;-70
2022/09/09 12:28:46;;;;;;;6.28;0.65;;;23.00;90.10;;;;;;5043482;28;20108;-69
2022/09/09 12:31:26;;;;;;;4.10;0.73;;;23.00;90.00;;;;;;5039713;28;20117;-70
2022/09/09 12:33:52;;;;;;;4.35;0.70;;;23.10;89.90;;;;;;5035921;28;20054;-69
2022/09/09 12:36:39;;;;;;;3.15;0.55;;;23.10;89.90;;;;;;5035451;28;20030;-69
2022/09/09 12:39:29;;;;;;;5.00;0.70;;;23.10;89.80;;;;;;5050545;28;20484;-69
2022/09/09 12:41:56;;;;;;;4.40;0.52;;;23.10;89.60;;;;;;5052360;28;20087;-69
2022/09/09 12:44:25;;;;;;;2.67;0.47;;;23.10;89.40;;;;;;5048264;28;20132;-69
2022/09/09 12:46:52;;;;;;;4.43;0.70;;;23.10;89.80;;;;;;5048473;28;20029;-69
2022/09/09 12:49:38;;;;;;;2.60;0.88;;;23.10;89.70;;;;;;5050571;28;20060;-69
2022/09/09 12:52:07;;;;;;;4.40;0.88;;;23.10;89.40;;;;;;5037676;28;20079;-69
2022/09/09 12:54:36;;;;;;;2.72;0.50;;;23.20;89.40;;;;;;5041393;28;20029;-69
2022/09/09 12:57:03;;;;;;;5.43;0.70;;;23.20;89.50;;;;;;5059586;28;20036;-69
2022/09/09 12:59:37;;;;;;;2.20;0.55;;;23.20;89.40;;;;;;5059849;28;20032;-70
2022/09/09 13:02:11;;;;;;;3.50;0.63;;;23.30;89.50;;;;;;5054492;28;20040;-69
2022/09/09 13:04:37;;;;;;;2.72;0.40;;;23.30;89.30;;;;;;5040822;28;20060;-69
2022/09/09 13:07:11;;;;;;;1.42;0.40;;;23.30;89.30;;;;;;5046882;28;20030;-70
2022/09/09 13:09:37;;;;;;;4.15;0.80;;;23.30;89.20;;;;;;5034908;28;20041;-67
2022/09/09 13:12:05;;;;;;;3.78;0.77;;;23.30;89.40;;;;;;5052125;28;20068;-68
2022/09/09 13:14:37;;;;;;;3.35;0.75;;;23.30;89.30;;;;;;5034324;28;20489;-67
2022/09/09 13:17:05;;;;;;;3.63;0.80;;;23.40;89.10;;;;;;5046572;28;20036;-67